createdAt,value
2019-03-25T00:01:06.955Z,99.30
2019-03-25T00:03:37.797Z,99.20
2019-03-25T00:06:08.509Z,99.20
2019-03-25T00:08:39.294Z,99.10
2019-03-25T00:11:10.006Z,99.10
2019-03-25T00:13:40.675Z,99.00
2019-03-25T00:16:11.273Z,99.40
2019-03-25T00:18:42.088Z,99.70
2019-03-25T00:21:12.754Z,99.60
2019-03-25T00:23:43.431Z,99.70
2019-03-25T00:26:14.062Z,99.60
2019-03-25T00:28:44.727Z,99.40
2019-03-25T00:31:15.388Z,99.70
2019-03-25T00:33:46.302Z,99.70
2019-03-25T00:36:16.994Z,99.60
2019-03-25T00:38:47.774Z,99.90
2019-03-25T00:41:18.470Z,99.70
2019-03-25T00:43:49.094Z,99.60
2019-03-25T00:46:19.690Z,99.60
2019-03-25T00:48:50.408Z,99.80
2019-03-25T00:51:21.123Z,99.70
2019-03-25T00:53:51.807Z,99.90
2019-03-25T00:56:22.571Z,99.90
2019-03-25T00:58:53.318Z,99.80
2019-03-25T01:01:24.011Z,99.90
2019-03-25T01:03:54.685Z,99.90
2019-03-25T01:06:25.289Z,99.90
2019-03-25T01:08:56.194Z,99.90
2019-03-25T01:11:26.919Z,99.90
2019-03-25T01:13:57.634Z,99.90
2019-03-25T01:16:28.392Z,99.90
2019-03-25T01:18:59.010Z,99.90
2019-03-25T01:21:29.618Z,99.90
2019-03-25T01:24:00.406Z,99.90
2019-03-25T01:26:31.382Z,99.90
2019-03-25T01:29:02.075Z,99.90
2019-03-25T01:31:32.916Z,99.90
2019-03-25T01:34:03.544Z,99.90
2019-03-25T01:36:34.116Z,99.90
2019-03-25T01:39:06.573Z,99.90
2019-03-25T01:41:37.383Z,99.90
2019-03-25T01:44:08.101Z,99.90
2019-03-25T01:46:38.905Z,99.90
2019-03-25T01:49:09.540Z,99.90
2019-03-25T01:51:40.293Z,99.90
2019-03-25T01:54:10.942Z,99.90
2019-03-25T01:56:41.551Z,99.90
2019-03-25T01:59:12.261Z,99.90
2019-03-25T02:01:43.244Z,99.90
2019-03-25T02:04:13.863Z,99.90
2019-03-25T02:06:44.447Z,99.90
2019-03-25T02:09:16.285Z,99.90
2019-03-25T02:11:47.124Z,99.90
2019-03-25T02:14:17.757Z,99.90
2019-03-25T02:16:48.425Z,99.90
2019-03-25T02:19:19.086Z,99.90
2019-03-25T02:21:49.706Z,99.90
2019-03-25T02:24:20.441Z,99.90
2019-03-25T02:26:51.208Z,99.90
2019-03-25T02:29:22.144Z,99.90
2019-03-25T02:31:52.974Z,99.90
2019-03-25T02:34:23.807Z,99.90
2019-03-25T02:36:54.432Z,99.90
2019-03-25T02:39:25.264Z,99.90
2019-03-25T02:41:55.902Z,99.90
2019-03-25T02:44:26.610Z,99.90
2019-03-25T02:46:57.310Z,99.90
2019-03-25T02:49:28.212Z,99.90
2019-03-25T02:51:58.969Z,99.90
2019-03-25T02:54:29.605Z,99.90
2019-03-25T02:57:00.216Z,99.90
2019-03-25T02:59:30.987Z,99.90
2019-03-25T03:02:01.602Z,99.90
2019-03-25T03:04:32.404Z,99.90
2019-03-25T03:07:03.204Z,99.90
2019-03-25T03:09:34.187Z,99.90
2019-03-25T03:12:04.782Z,99.90
2019-03-25T03:14:35.465Z,99.90
2019-03-25T03:17:06.182Z,99.90
2019-03-25T03:19:36.884Z,99.90
2019-03-25T03:22:07.680Z,99.90
2019-03-25T03:24:38.427Z,99.90
2019-03-25T03:27:09.095Z,99.90
2019-03-25T03:29:39.783Z,99.90
2019-03-25T03:32:10.506Z,99.90
2019-03-25T03:34:41.245Z,99.90
2019-03-25T03:37:11.911Z,99.90
2019-03-25T03:39:42.586Z,99.90
2019-03-25T03:42:13.183Z,99.90
2019-03-25T03:44:44.143Z,99.90
2019-03-25T03:47:15.171Z,99.90
2019-03-25T03:49:45.796Z,99.90
2019-03-25T03:52:16.884Z,99.90
2019-03-25T03:54:47.732Z,99.90
2019-03-25T03:57:19.611Z,99.90
2019-03-25T03:59:51.004Z,99.90
2019-03-25T04:02:21.654Z,99.90
2019-03-25T04:04:52.362Z,99.90
2019-03-25T04:07:23.043Z,99.90
2019-03-25T04:09:53.802Z,99.90
2019-03-25T04:12:24.494Z,99.90
2019-03-25T04:14:55.186Z,99.90
2019-03-25T04:17:25.842Z,99.90
2019-03-25T04:19:56.640Z,99.90
2019-03-25T04:22:27.322Z,99.90
2019-03-25T04:24:57.934Z,99.90
2019-03-25T04:27:28.702Z,99.90
2019-03-25T04:29:59.433Z,99.90
2019-03-25T04:32:30.137Z,99.90
2019-03-25T04:35:00.831Z,99.90
2019-03-25T04:37:31.514Z,99.90
2019-03-25T04:40:02.155Z,99.90
2019-03-25T04:42:33.007Z,99.90
2019-03-25T04:45:03.753Z,99.90
2019-03-25T04:47:34.521Z,99.90
2019-03-25T04:50:05.533Z,99.90
2019-03-25T04:52:37.337Z,99.90
2019-03-25T04:55:08.556Z,99.90
2019-03-25T04:57:39.287Z,99.90
2019-03-25T05:00:11.929Z,99.90
2019-03-25T05:02:42.622Z,99.90
2019-03-25T05:05:13.519Z,99.90
2019-03-25T05:07:44.266Z,99.90
2019-03-25T05:10:14.978Z,99.90
2019-03-25T05:12:45.689Z,99.90
2019-03-25T05:15:16.498Z,99.90
2019-03-25T05:17:47.500Z,99.90
2019-03-25T05:20:18.207Z,99.90
2019-03-25T05:22:48.862Z,99.90
2019-03-25T05:25:19.485Z,99.90
2019-03-25T05:27:50.142Z,99.90
2019-03-25T05:30:22.922Z,99.90
2019-03-25T05:32:53.166Z,99.90
2019-03-25T05:35:23.878Z,99.90
2019-03-25T05:37:54.497Z,99.90
2019-03-25T05:40:25.193Z,99.90
2019-03-25T05:42:56.873Z,99.90
2019-03-25T05:45:27.568Z,99.90
2019-03-25T05:47:58.269Z,99.90
2019-03-25T05:50:29.074Z,99.90
2019-03-25T05:52:59.710Z,99.90
2019-03-25T05:55:30.457Z,99.90
2019-03-25T05:58:01.175Z,99.90
2019-03-25T06:00:34.421Z,99.90
2019-03-25T06:03:05.139Z,99.90
2019-03-25T06:05:37.028Z,99.90
2019-03-25T06:08:07.738Z,99.90
2019-03-25T06:10:38.529Z,99.90
2019-03-25T06:13:09.197Z,99.90
2019-03-25T06:15:39.829Z,99.90
2019-03-25T06:18:10.496Z,99.90
2019-03-25T06:20:41.125Z,99.90
2019-03-25T06:23:11.775Z,99.90
2019-03-25T06:25:42.460Z,99.90
2019-03-25T06:28:13.207Z,99.90
2019-03-25T06:30:43.870Z,99.90
2019-03-25T06:33:14.518Z,99.90
2019-03-25T06:35:45.199Z,99.90
2019-03-25T06:38:15.905Z,99.90
2019-03-25T06:40:49.122Z,99.90
2019-03-25T06:43:18.991Z,99.80
2019-03-25T06:45:49.693Z,98.80
2019-03-25T06:48:20.346Z,98.60
2019-03-25T06:50:51.203Z,98.80
2019-03-25T06:53:22.943Z,98.40
2019-03-25T06:56:12.438Z,97.30
2019-03-25T06:58:43.148Z,96.50
2019-03-25T07:01:13.962Z,97.10
2019-03-25T07:03:44.775Z,96.70
2019-03-25T07:06:15.589Z,96.70
2019-03-25T07:08:46.221Z,96.30
2019-03-25T07:11:16.962Z,95.60
2019-03-25T07:13:47.648Z,95.10
2019-03-25T07:16:18.371Z,94.50
2019-03-25T07:18:49.014Z,94.40
2019-03-25T07:21:20.617Z,93.50
2019-03-25T07:23:52.182Z,92.10
2019-03-25T07:26:22.978Z,90.50
2019-03-25T07:28:54.585Z,92.90
2019-03-25T07:31:25.486Z,90.50
2019-03-25T07:33:56.178Z,90.20
2019-03-25T07:36:26.793Z,87.30
2019-03-25T07:39:00.082Z,86.00
2019-03-25T07:41:29.942Z,86.30
2019-03-25T07:44:00.679Z,83.70
2019-03-25T07:46:31.426Z,84.50
2019-03-25T07:49:02.061Z,81.90
2019-03-25T07:51:32.761Z,82.10
2019-03-25T07:54:03.529Z,81.00
2019-03-25T07:56:34.224Z,78.70
2019-03-25T07:59:05.147Z,79.10
2019-03-25T08:01:35.956Z,81.00
2019-03-25T08:04:06.573Z,79.10
2019-03-25T08:06:37.412Z,80.90
2019-03-25T08:09:09.226Z,82.70
2019-03-25T08:11:39.974Z,83.00
2019-03-25T08:14:10.796Z,80.10
2019-03-25T08:16:41.450Z,78.00
2019-03-25T08:19:13.322Z,78.60
2019-03-25T08:21:45.243Z,76.40
2019-03-25T08:24:20.236Z,76.40
2019-03-25T08:26:50.963Z,77.80
2019-03-25T08:29:21.622Z,75.90
2019-03-25T08:31:53.190Z,76.50
2019-03-25T08:34:25.812Z,75.70
2019-03-25T08:36:56.609Z,79.20
2019-03-25T08:39:27.185Z,78.00
2019-03-25T08:41:57.991Z,77.10
2019-03-25T08:44:28.747Z,74.00
2019-03-25T08:46:59.390Z,74.70
2019-03-25T08:49:29.958Z,74.80
2019-03-25T08:52:00.726Z,70.80
2019-03-25T08:54:33.309Z,73.00
2019-03-25T08:57:04.067Z,74.90
2019-03-25T08:59:34.833Z,73.70
2019-03-25T09:02:05.633Z,71.10
2019-03-25T09:04:36.716Z,68.30
2019-03-25T09:07:09.073Z,67.50
2019-03-25T09:09:39.859Z,66.20
2019-03-25T09:12:10.517Z,65.80
2019-03-25T09:14:42.500Z,64.80
2019-03-25T09:17:13.377Z,64.10
2019-03-25T09:19:44.033Z,64.70
2019-03-25T09:22:15.074Z,64.40
2019-03-25T09:24:45.840Z,64.20
2019-03-25T09:27:18.628Z,66.30
2019-03-25T09:29:49.317Z,66.10
2019-03-25T09:32:20.129Z,66.20
2019-03-25T09:34:50.865Z,63.00
2019-03-25T09:37:21.546Z,62.60
2019-03-25T09:39:52.318Z,63.20
2019-03-25T09:42:22.916Z,62.50
2019-03-25T09:44:53.614Z,63.70
2019-03-25T09:47:24.237Z,63.70
2019-03-25T09:49:54.925Z,62.10
2019-03-25T09:52:25.608Z,62.60
2019-03-25T09:54:56.282Z,62.70
2019-03-25T09:57:27.054Z,64.40
2019-03-25T09:59:58.725Z,65.60
2019-03-25T10:02:29.733Z,67.50
2019-03-25T10:05:01.464Z,68.50
2019-03-25T10:07:32.174Z,69.50
2019-03-25T10:10:03.022Z,69.30
2019-03-25T10:12:33.818Z,67.20
2019-03-25T10:15:04.793Z,65.60
2019-03-25T10:17:35.408Z,65.00
2019-03-25T10:20:07.465Z,61.90
2019-03-25T10:22:38.543Z,60.30
2019-03-25T10:25:10.421Z,61.30
2019-03-25T10:27:41.108Z,62.10
2019-03-25T10:30:12.618Z,64.30
2019-03-25T10:32:43.404Z,65.20
2019-03-25T10:35:15.294Z,66.50
2019-03-25T10:37:46.077Z,66.40
2019-03-25T10:40:16.953Z,66.10
2019-03-25T10:42:47.650Z,66.80
2019-03-25T10:45:19.318Z,67.10
2019-03-25T10:47:49.947Z,65.90
2019-03-25T10:50:20.752Z,64.30
2019-03-25T10:52:51.527Z,63.90
2019-03-25T10:55:22.290Z,64.50
2019-03-25T10:57:53.012Z,62.80
2019-03-25T11:00:24.202Z,62.70
2019-03-25T11:02:55.063Z,61.50
2019-03-25T11:05:25.710Z,59.90
2019-03-25T11:07:57.434Z,60.10
2019-03-25T11:10:28.126Z,58.40
2019-03-25T11:12:58.982Z,59.60
2019-03-25T11:15:30.617Z,59.00
2019-03-25T11:18:01.186Z,58.90
2019-03-25T11:20:31.769Z,59.50
2019-03-25T11:23:02.675Z,59.30
2019-03-25T11:25:33.295Z,57.80
2019-03-25T11:28:04.093Z,57.60
2019-03-25T11:31:00.352Z,59.60
2019-03-25T11:33:31.084Z,58.40
2019-03-25T11:36:02.826Z,57.60
2019-03-25T11:38:33.760Z,58.30
2019-03-25T11:41:04.468Z,59.50
2019-03-25T11:43:35.090Z,59.20
2019-03-25T11:46:05.794Z,60.40
2019-03-25T11:48:36.454Z,62.00
2019-03-25T11:51:07.342Z,61.80
2019-03-25T11:53:38.223Z,60.40
2019-03-25T11:56:08.813Z,59.20
2019-03-25T11:58:39.494Z,60.40
2019-03-25T12:01:11.284Z,60.80
2019-03-25T12:03:41.922Z,60.70
2019-03-25T12:06:12.599Z,58.40
2019-03-25T12:08:43.229Z,58.30
2019-03-25T12:11:14.019Z,60.00
2019-03-25T12:13:44.709Z,60.60
2019-03-25T12:16:15.287Z,60.80
2019-03-25T12:18:45.908Z,60.40
2019-03-25T12:21:16.590Z,60.20
2019-03-25T12:23:47.250Z,61.20
2019-03-25T12:26:17.898Z,61.60
2019-03-25T12:28:48.633Z,61.50
2019-03-25T12:31:19.573Z,63.60
2019-03-25T12:33:50.249Z,63.20
2019-03-25T12:36:20.977Z,64.80
2019-03-25T12:38:51.574Z,65.20
2019-03-25T12:41:22.344Z,65.60
2019-03-25T12:43:53.054Z,65.80
2019-03-25T12:46:23.817Z,65.00
2019-03-25T12:48:54.503Z,66.50
2019-03-25T12:51:25.293Z,66.30
2019-03-25T12:53:56.176Z,66.90
2019-03-25T12:56:26.942Z,66.00
2019-03-25T12:58:57.619Z,62.70
2019-03-25T13:01:28.559Z,62.50
2019-03-25T13:03:59.573Z,64.40
2019-03-25T13:06:30.733Z,63.50
2019-03-25T13:09:01.675Z,65.00
2019-03-25T13:11:34.018Z,64.20
2019-03-25T13:14:04.971Z,62.30
2019-03-25T13:16:35.697Z,60.30
2019-03-25T13:19:06.382Z,58.70
2019-03-25T13:21:37.123Z,56.90
2019-03-25T13:24:07.930Z,57.20
2019-03-25T13:26:38.625Z,56.70
2019-03-25T13:29:09.323Z,54.80
2019-03-25T13:31:41.273Z,55.90
2019-03-25T13:34:12.122Z,58.10
2019-03-25T13:36:42.816Z,61.90
2019-03-25T13:39:13.383Z,61.50
2019-03-25T13:41:44.030Z,60.20
2019-03-25T13:44:14.653Z,59.90
2019-03-25T13:46:45.390Z,58.90
2019-03-25T13:49:16.022Z,57.70
2019-03-25T13:51:46.795Z,56.70
2019-03-25T13:54:17.453Z,56.10
2019-03-25T13:56:48.154Z,56.90
2019-03-25T13:59:18.916Z,59.60
2019-03-25T14:01:49.706Z,61.90
2019-03-25T14:04:20.410Z,62.50
2019-03-25T14:06:51.195Z,62.80
2019-03-25T14:09:22.814Z,64.70
2019-03-25T14:11:53.586Z,70.40
2019-03-25T14:14:24.164Z,75.40
2019-03-25T14:16:54.916Z,77.20
2019-03-25T14:19:25.512Z,80.30
2019-03-25T14:21:56.180Z,83.70
2019-03-25T14:24:27.380Z,84.20
2019-03-25T14:26:58.060Z,86.50
2019-03-25T14:29:28.787Z,88.90
2019-03-25T14:31:59.621Z,90.80
2019-03-25T14:34:30.377Z,91.40
2019-03-25T14:37:01.081Z,92.10
2019-03-25T14:39:31.737Z,92.30
2019-03-25T14:42:02.385Z,91.90
2019-03-25T14:44:33.078Z,91.30
2019-03-25T14:47:03.722Z,94.90
2019-03-25T14:49:34.442Z,97.40
2019-03-25T14:52:05.113Z,97.90
2019-03-25T14:54:35.806Z,97.60
2019-03-25T14:57:06.511Z,98.10
2019-03-25T14:59:37.150Z,97.60
2019-03-25T15:02:07.830Z,97.90
2019-03-25T15:04:38.529Z,97.10
2019-03-25T15:07:09.322Z,96.60
2019-03-25T15:09:39.982Z,96.20
2019-03-25T15:12:10.832Z,96.40
2019-03-25T15:14:41.686Z,96.60
2019-03-25T15:17:12.323Z,96.80
2019-03-25T15:19:42.888Z,96.00
2019-03-25T15:22:13.575Z,96.40
2019-03-25T15:24:44.513Z,96.80
2019-03-25T15:27:15.206Z,96.80
2019-03-25T15:29:46.014Z,97.50
2019-03-25T15:32:18.696Z,97.10
2019-03-25T15:34:49.449Z,97.10
2019-03-25T15:37:20.175Z,97.30
2019-03-25T15:39:50.779Z,97.00
2019-03-25T15:42:21.398Z,97.10
2019-03-25T15:44:51.995Z,97.80
2019-03-25T15:47:22.929Z,98.10
2019-03-25T15:49:53.707Z,98.00
2019-03-25T15:52:24.566Z,97.40
2019-03-25T15:54:55.354Z,97.80
2019-03-25T15:57:26.087Z,97.70
2019-03-25T15:59:56.814Z,97.30
2019-03-25T16:02:27.591Z,97.30
2019-03-25T16:04:58.158Z,96.90
2019-03-25T16:07:28.749Z,97.80
2019-03-25T16:09:59.530Z,97.40
2019-03-25T16:12:30.303Z,97.90
2019-03-25T16:15:00.903Z,98.00
2019-03-25T16:17:31.630Z,98.00
2019-03-25T16:20:02.434Z,98.30
2019-03-25T16:22:33.176Z,98.40
2019-03-25T16:25:03.983Z,98.10
2019-03-25T16:27:34.613Z,98.00
2019-03-25T16:30:06.263Z,98.00
2019-03-25T16:32:37.958Z,98.20
2019-03-25T16:35:08.821Z,98.00
2019-03-25T16:37:39.554Z,98.40
2019-03-25T16:40:10.417Z,98.40
2019-03-25T16:42:41.247Z,98.20
2019-03-25T16:45:12.818Z,98.80
2019-03-25T16:47:43.515Z,99.20
2019-03-25T16:50:14.322Z,99.60
2019-03-25T16:52:45.034Z,99.90
2019-03-25T16:55:15.657Z,99.90
2019-03-25T16:57:46.505Z,99.90
2019-03-25T17:00:26.996Z,99.90
2019-03-25T17:02:49.694Z,99.90
2019-03-25T17:05:20.574Z,99.90
2019-03-25T17:07:51.308Z,99.90
2019-03-25T17:10:22.254Z,99.90
2019-03-25T17:12:52.962Z,99.90
2019-03-25T17:15:23.653Z,99.90
2019-03-25T17:17:54.313Z,99.90
2019-03-25T17:20:25.044Z,99.90
2019-03-25T17:22:55.737Z,99.90
2019-03-25T17:25:26.580Z,99.90
2019-03-25T17:27:57.309Z,99.90
2019-03-25T17:30:27.982Z,99.90
2019-03-25T17:32:58.715Z,99.90
2019-03-25T17:35:29.417Z,99.90
2019-03-25T17:38:00.181Z,99.90
2019-03-25T17:40:31.011Z,99.90
2019-03-25T17:43:06.537Z,99.90
2019-03-25T17:45:37.169Z,99.90
2019-03-25T17:48:08.090Z,99.90
2019-03-25T17:50:38.792Z,99.90
2019-03-25T17:53:09.578Z,99.90
2019-03-25T17:55:40.451Z,99.90
2019-03-25T17:58:11.317Z,99.90
2019-03-25T18:01:18.720Z,99.90
2019-03-25T18:03:49.626Z,99.90
2019-03-25T18:06:20.286Z,99.90
2019-03-25T18:08:51.048Z,99.90
2019-03-25T18:11:22.900Z,99.90
2019-03-25T18:13:53.745Z,99.90
2019-03-25T18:16:24.428Z,99.90
2019-03-25T18:18:55.263Z,99.90
2019-03-25T18:21:26.100Z,99.90
2019-03-25T18:23:56.890Z,99.90
2019-03-25T18:26:27.875Z,99.90
2019-03-25T18:28:58.672Z,99.90
2019-03-25T18:31:29.333Z,99.90
2019-03-25T18:34:00.026Z,99.90
2019-03-25T18:36:31.934Z,99.90
2019-03-25T18:39:02.641Z,99.90
2019-03-25T18:41:33.885Z,99.90
2019-03-25T18:44:04.726Z,99.90
2019-03-25T18:46:35.447Z,99.90
2019-03-25T18:49:06.163Z,99.90
2019-03-25T18:51:36.968Z,99.90
2019-03-25T18:54:07.767Z,99.90
2019-03-25T18:56:39.490Z,99.90
2019-03-25T18:59:10.640Z,99.90
2019-03-25T19:01:41.383Z,99.90
2019-03-25T19:04:12.309Z,99.90
2019-03-25T19:06:45.713Z,99.90
2019-03-25T19:09:16.464Z,99.90
2019-03-25T19:11:47.237Z,99.90
2019-03-25T19:14:20.509Z,99.90
2019-03-25T19:16:53.125Z,99.90
2019-03-25T19:19:36.020Z,99.90
2019-03-25T19:22:18.967Z,99.90
2019-03-25T19:24:49.879Z,99.90
2019-03-25T19:27:20.648Z,99.90
2019-03-25T19:29:51.462Z,99.90
2019-03-25T19:32:22.216Z,99.90
2019-03-25T19:34:52.934Z,99.90
2019-03-25T19:37:23.970Z,99.90
2019-03-25T19:39:54.705Z,99.90
2019-03-25T19:42:25.580Z,99.90
2019-03-25T19:44:56.316Z,99.90
2019-03-25T19:47:27.007Z,99.90
2019-03-25T19:49:57.797Z,99.90
2019-03-25T19:52:28.580Z,99.90
2019-03-25T19:55:00.465Z,99.90
2019-03-25T19:57:31.268Z,99.90
2019-03-25T20:00:01.988Z,99.90
2019-03-25T20:02:34.088Z,99.90
2019-03-25T20:05:05.489Z,99.90
2019-03-25T20:07:36.355Z,99.90
2019-03-25T20:10:07.829Z,99.90
2019-03-25T20:12:38.866Z,99.90
2019-03-25T20:15:09.793Z,99.90
2019-03-25T20:17:40.510Z,99.90
2019-03-25T20:20:11.483Z,99.90
2019-03-25T20:22:42.261Z,99.90
2019-03-25T20:25:13.119Z,99.90
2019-03-25T20:27:43.874Z,99.90
2019-03-25T20:30:15.348Z,99.90
2019-03-25T20:32:46.037Z,99.90
2019-03-25T20:35:16.746Z,99.90
2019-03-25T20:37:47.408Z,99.90
2019-03-25T20:40:18.191Z,99.90
2019-03-25T20:42:48.943Z,99.90
2019-03-25T20:45:19.909Z,99.90
2019-03-25T20:47:50.619Z,99.90
2019-03-25T20:50:21.384Z,99.90
2019-03-25T20:52:52.251Z,99.90
2019-03-25T20:55:23.048Z,99.90
2019-03-25T20:57:53.882Z,99.90
2019-03-25T21:00:49.090Z,99.90
2019-03-25T21:03:20.137Z,99.90
2019-03-25T21:05:50.931Z,99.90
2019-03-25T21:08:21.660Z,99.90
2019-03-25T21:10:52.523Z,99.90
2019-03-25T21:13:23.313Z,99.90
2019-03-25T21:15:54.188Z,99.90
2019-03-25T21:18:24.989Z,99.90
2019-03-25T21:20:55.889Z,99.90
2019-03-25T21:23:26.801Z,99.90
2019-03-25T21:25:57.645Z,99.90
2019-03-25T21:28:28.425Z,99.90
2019-03-25T21:30:59.172Z,99.90
2019-03-25T21:33:30.056Z,99.90
2019-03-25T21:36:00.816Z,99.90
2019-03-25T21:38:31.641Z,99.90
2019-03-25T21:41:02.927Z,99.90
2019-03-25T21:43:33.758Z,99.90
2019-03-25T21:46:04.629Z,99.90
2019-03-25T21:48:35.616Z,99.90
2019-03-25T21:51:06.384Z,99.90
2019-03-25T21:53:37.100Z,99.90
2019-03-25T21:56:07.943Z,99.90
2019-03-25T21:58:38.661Z,99.90
2019-03-25T22:01:09.388Z,99.90
2019-03-25T22:03:40.224Z,99.90
2019-03-25T22:06:10.916Z,99.90
2019-03-25T22:08:41.674Z,99.90
2019-03-25T22:11:12.446Z,99.90
2019-03-25T22:13:43.062Z,99.90
2019-03-25T22:16:13.820Z,99.90
2019-03-25T22:18:44.507Z,99.90
2019-03-25T22:21:15.186Z,99.90
2019-03-25T22:23:45.906Z,99.90
2019-03-25T22:26:16.618Z,99.90
2019-03-25T22:28:47.382Z,99.90
2019-03-25T22:31:18.130Z,99.90
2019-03-25T22:33:48.887Z,99.90
2019-03-25T22:36:19.494Z,99.90
2019-03-25T22:38:50.149Z,99.90
2019-03-25T22:41:20.818Z,99.90
2019-03-25T22:43:51.598Z,99.90
2019-03-25T22:46:22.332Z,99.90
2019-03-25T22:48:53.003Z,99.90
2019-03-25T22:51:23.681Z,99.90
2019-03-25T22:53:54.313Z,99.90
2019-03-25T22:56:26.145Z,99.90
2019-03-25T22:58:56.859Z,99.90
2019-03-25T23:01:27.626Z,99.90
2019-03-25T23:03:58.379Z,99.90
2019-03-25T23:06:29.218Z,99.90
2019-03-25T23:08:59.951Z,99.90
2019-03-25T23:11:30.598Z,99.90
2019-03-25T23:14:01.289Z,99.90
2019-03-25T23:16:31.965Z,99.90
2019-03-25T23:19:02.704Z,99.90
2019-03-25T23:21:33.638Z,99.90
2019-03-25T23:24:04.406Z,99.90
2019-03-25T23:26:35.089Z,99.90
2019-03-25T23:29:05.858Z,99.90
2019-03-25T23:31:36.650Z,99.90
2019-03-25T23:34:07.324Z,99.90
2019-03-25T23:36:38.079Z,99.90
2019-03-25T23:39:09.053Z,99.90
2019-03-25T23:41:39.642Z,99.90
2019-03-25T23:44:10.290Z,99.90
2019-03-25T23:46:41.029Z,99.90
2019-03-25T23:49:11.818Z,99.90
2019-03-25T23:51:42.552Z,99.90
2019-03-25T23:54:14.414Z,99.90
2019-03-25T23:56:45.054Z,99.90
2019-03-25T23:59:15.785Z,99.90
